Forest, OH (45843)

8:06 AM EST on December 07, 2016 (GMT -0500)
Findlay | | Change Station

Elev 810 ft 41.01 °N, 83.67 °W | Updated 13 minutes ago

Clear
Clear
27 °F
Feels Like 18 °F
N
9
Wind Variable Wind from WSW

Today
High -- | Low -- °F
--% Chance of Precip.
Yesterday
High -- | Low -- °F
Precip. -- in
Pressure 30.09 in
Visibility 10.0 miles
Clouds Clear
Windchill 18 °F
Dew Point 20 °F
Humidity 75%
Rainfall 0.00 in
Snow Depth Not available.
7:45 AM 5:06 PM
First Quarter, 52% visible
METAR KFDY 071253Z AUTO 24008KT 10SM CLR M03/M07 A3008 RMK AO2 SLP190 T10281067
Pressure 30.09 in
Visibility 10.0 miles
Clouds Clear
Windchill 18 °F
Dew Point 20 °F
Humidity 75%
Rainfall 0.00 in
Snow Depth Not available.
7:45 AM 5:06 PM
First Quarter, 52% visible
METAR KFDY 071253Z AUTO 24008KT 10SM CLR M03/M07 A3008 RMK AO2 SLP190 T10281067

10-Day Weather Forecast

Almanac

Astronomy

Dec. 07, 2016 Rise Set
Actual Time
Civil Twilight
Nautical Twilight
Astronomical Twilight
Moon
Length of Visible Light
Length of Day
Tomorrow will be .
, % of the Moon is Illuminated

Today's Extremes

State Highs State Lows

Community

WunderPhotos

Upload Photos

1,956,112 photos uploaded!

WunderBlog® & News

Nearby

Air Quality

  Air Quality AQ Index Pollutant
Not available.

Snow Depth

Station Depth Elevation

Earthquake Activity

City Distance Mag. Time & Date
Minimum magnitude displayed is 2.5.

Coastal Water Temperatures

Place Temperature

Stations

Nearby Weather Stations

Station Location Temp. Windchill Dew Point Humidity Wind Precip. Elev Updated Type
                   

Watches & Warnings

There are currently no watches in effect.